sensor_id;sensor_type;location;lat;lon;timestamp;P1;durP1;ratioP1;P2;durP2;ratioP2
36799;SDS011;22752;51.960;5.886;2022-12-18T00:02:16;103.63;;;44.93;;
36799;SDS011;22752;51.960;5.886;2022-12-18T00:04:42;91.37;;;42.30;;
36799;SDS011;22752;51.960;5.886;2022-12-18T00:07:08;92.90;;;42.20;;
36799;SDS011;22752;51.960;5.886;2022-12-18T00:09:33;92.13;;;41.97;;
36799;SDS011;22752;51.960;5.886;2022-12-18T00:11:59;112.27;;;42.90;;
36799;SDS011;22752;51.960;5.886;2022-12-18T00:14:25;88.10;;;40.00;;
36799;SDS011;22752;51.960;5.886;2022-12-18T00:16:50;83.30;;;38.37;;
36799;SDS011;22752;51.960;5.886;2022-12-18T00:19:16;85.00;;;39.23;;
36799;SDS011;22752;51.960;5.886;2022-12-18T00:21:42;85.37;;;37.63;;
36799;SDS011;22752;51.960;5.886;2022-12-18T00:24:09;83.30;;;38.10;;
36799;SDS011;22752;51.960;5.886;2022-12-18T00:26:35;83.77;;;40.30;;
36799;SDS011;22752;51.960;5.886;2022-12-18T00:29:03;83.83;;;38.47;;
36799;SDS011;22752;51.960;5.886;2022-12-18T00:34:01;80.67;;;36.97;;
36799;SDS011;22752;51.960;5.886;2022-12-18T00:36:28;77.13;;;37.13;;
36799;SDS011;22752;51.960;5.886;2022-12-18T00:38:57;88.73;;;41.13;;
36799;SDS011;22752;51.960;5.886;2022-12-18T00:41:24;86.63;;;41.00;;
36799;SDS011;22752;51.960;5.886;2022-12-18T00:44:09;85.47;;;39.73;;
36799;SDS011;22752;51.960;5.886;2022-12-18T00:46:37;79.57;;;39.40;;
36799;SDS011;22752;51.960;5.886;2022-12-18T00:49:03;80.27;;;39.73;;
36799;SDS011;22752;51.960;5.886;2022-12-18T00:51:29;80.27;;;39.90;;
36799;SDS011;22752;51.960;5.886;2022-12-18T00:53:54;81.40;;;38.13;;
36799;SDS011;22752;51.960;5.886;2022-12-18T00:56:20;70.93;;;35.80;;
36799;SDS011;22752;51.960;5.886;2022-12-18T00:58:46;78.93;;;38.60;;
36799;SDS011;22752;51.960;5.886;2022-12-18T01:01:12;70.73;;;36.97;;
36799;SDS011;22752;51.960;5.886;2022-12-18T01:03:37;75.87;;;37.73;;
36799;SDS011;22752;51.960;5.886;2022-12-18T01:06:07;77.23;;;36.90;;
36799;SDS011;22752;51.960;5.886;2022-12-18T01:08:34;78.90;;;36.67;;
36799;SDS011;22752;51.960;5.886;2022-12-18T01:11:00;79.70;;;37.30;;
36799;SDS011;22752;51.960;5.886;2022-12-18T01:13:31;77.80;;;37.78;;
36799;SDS011;22752;51.960;5.886;2022-12-18T01:15:57;79.73;;;39.47;;
36799;SDS011;22752;51.960;5.886;2022-12-18T01:18:23;78.43;;;38.07;;
36799;SDS011;22752;51.960;5.886;2022-12-18T01:20:48;68.60;;;34.73;;
36799;SDS011;22752;51.960;5.886;2022-12-18T01:23:14;80.97;;;38.17;;
36799;SDS011;22752;51.960;5.886;2022-12-18T01:25:39;69.00;;;35.53;;
36799;SDS011;22752;51.960;5.886;2022-12-18T01:28:05;71.17;;;35.33;;
36799;SDS011;22752;51.960;5.886;2022-12-18T01:30:30;70.83;;;34.80;;
36799;SDS011;22752;51.960;5.886;2022-12-18T01:32:56;68.77;;;36.23;;
36799;SDS011;22752;51.960;5.886;2022-12-18T01:35:22;75.77;;;36.53;;
36799;SDS011;22752;51.960;5.886;2022-12-18T01:37:48;65.70;;;32.70;;
36799;SDS011;22752;51.960;5.886;2022-12-18T01:40:13;70.47;;;35.03;;
36799;SDS011;22752;51.960;5.886;2022-12-18T01:42:39;70.50;;;36.43;;
36799;SDS011;22752;51.960;5.886;2022-12-18T01:45:06;69.10;;;35.27;;
36799;SDS011;22752;51.960;5.886;2022-12-18T01:52:57;68.03;;;33.47;;
36799;SDS011;22752;51.960;5.886;2022-12-18T01:55:37;63.83;;;31.95;;
36799;SDS011;22752;51.960;5.886;2022-12-18T01:58:07;67.77;;;34.60;;
36799;SDS011;22752;51.960;5.886;2022-12-18T02:00:33;69.63;;;32.77;;
36799;SDS011;22752;51.960;5.886;2022-12-18T02:02:59;68.93;;;32.83;;
36799;SDS011;22752;51.960;5.886;2022-12-18T02:05:45;64.23;;;33.27;;
36799;SDS011;22752;51.960;5.886;2022-12-18T02:10:51;63.17;;;30.50;;
36799;SDS011;22752;51.960;5.886;2022-12-18T02:16:18;65.20;;;31.97;;
36799;SDS011;22752;51.960;5.886;2022-12-18T02:19:16;61.65;;;30.20;;
36799;SDS011;22752;51.960;5.886;2022-12-18T02:27:23;70.43;;;35.50;;
36799;SDS011;22752;51.960;5.886;2022-12-18T02:29:53;64.57;;;33.13;;
36799;SDS011;22752;51.960;5.886;2022-12-18T02:32:21;68.23;;;33.90;;
36799;SDS011;22752;51.960;5.886;2022-12-18T02:34:52;70.03;;;33.72;;
36799;SDS011;22752;51.960;5.886;2022-12-18T02:37:21;64.50;;;31.27;;
36799;SDS011;22752;51.960;5.886;2022-12-18T02:39:49;69.17;;;32.70;;
36799;SDS011;22752;51.960;5.886;2022-12-18T02:42:20;66.53;;;32.57;;
36799;SDS011;22752;51.960;5.886;2022-12-18T02:44:47;62.80;;;30.97;;
36799;SDS011;22752;51.960;5.886;2022-12-18T02:47:16;66.67;;;31.63;;
36799;SDS011;22752;51.960;5.886;2022-12-18T02:58:36;60.20;;;29.63;;
36799;SDS011;22752;51.960;5.886;2022-12-18T03:03:47;62.00;;;29.60;;
36799;SDS011;22752;51.960;5.886;2022-12-18T03:06:27;57.93;;;30.77;;
36799;SDS011;22752;51.960;5.886;2022-12-18T03:09:02;60.57;;;28.77;;
36799;SDS011;22752;51.960;5.886;2022-12-18T03:11:37;62.83;;;31.80;;
36799;SDS011;22752;51.960;5.886;2022-12-18T03:14:25;60.37;;;30.03;;
36799;SDS011;22752;51.960;5.886;2022-12-18T03:16:54;63.53;;;32.70;;
36799;SDS011;22752;51.960;5.886;2022-12-18T03:19:26;59.43;;;30.20;;
36799;SDS011;22752;51.960;5.886;2022-12-18T03:21:55;53.60;;;28.40;;
36799;SDS011;22752;51.960;5.886;2022-12-18T03:24:22;62.63;;;30.37;;
36799;SDS011;22752;51.960;5.886;2022-12-18T03:26:52;58.17;;;29.30;;
36799;SDS011;22752;51.960;5.886;2022-12-18T03:29:26;56.40;;;27.60;;
36799;SDS011;22752;51.960;5.886;2022-12-18T03:32:02;54.87;;;28.80;;
36799;SDS011;22752;51.960;5.886;2022-12-18T03:34:34;54.03;;;29.10;;
36799;SDS011;22752;51.960;5.886;2022-12-18T03:37:03;57.73;;;27.73;;
36799;SDS011;22752;51.960;5.886;2022-12-18T03:39:30;55.90;;;28.77;;
36799;SDS011;22752;51.960;5.886;2022-12-18T03:44:32;51.03;;;26.73;;
36799;SDS011;22752;51.960;5.886;2022-12-18T03:47:06;51.67;;;26.83;;
36799;SDS011;22752;51.960;5.886;2022-12-18T03:50:21;51.60;;;26.63;;
36799;SDS011;22752;51.960;5.886;2022-12-18T03:52:28;54.53;;;28.03;;
36799;SDS011;22752;51.960;5.886;2022-12-18T03:54:59;55.65;;;29.48;;
36799;SDS011;22752;51.960;5.886;2022-12-18T03:57:28;49.07;;;25.10;;
36799;SDS011;22752;51.960;5.886;2022-12-18T03:59:56;47.87;;;25.77;;
36799;SDS011;22752;51.960;5.886;2022-12-18T04:02:25;47.27;;;25.23;;
36799;SDS011;22752;51.960;5.886;2022-12-18T04:04:52;49.23;;;26.60;;
36799;SDS011;22752;51.960;5.886;2022-12-18T04:07:21;48.90;;;25.87;;
36799;SDS011;22752;51.960;5.886;2022-12-18T04:09:48;45.30;;;23.23;;
36799;SDS011;22752;51.960;5.886;2022-12-18T04:12:15;48.10;;;26.03;;
36799;SDS011;22752;51.960;5.886;2022-12-18T04:14:40;45.60;;;23.67;;
36799;SDS011;22752;51.960;5.886;2022-12-18T04:17:06;51.03;;;25.37;;
36799;SDS011;22752;51.960;5.886;2022-12-18T04:19:32;43.87;;;23.00;;
36799;SDS011;22752;51.960;5.886;2022-12-18T04:21:57;45.00;;;23.47;;
36799;SDS011;22752;51.960;5.886;2022-12-18T04:24:23;46.20;;;23.10;;
36799;SDS011;22752;51.960;5.886;2022-12-18T04:26:48;40.90;;;23.03;;
36799;SDS011;22752;51.960;5.886;2022-12-18T04:29:14;44.60;;;23.13;;
36799;SDS011;22752;51.960;5.886;2022-12-18T04:31:40;49.33;;;23.47;;
36799;SDS011;22752;51.960;5.886;2022-12-18T04:34:05;41.57;;;22.47;;
36799;SDS011;22752;51.960;5.886;2022-12-18T04:36:31;41.80;;;22.47;;
36799;SDS011;22752;51.960;5.886;2022-12-18T04:38:56;43.53;;;22.27;;
36799;SDS011;22752;51.960;5.886;2022-12-18T04:41:22;44.10;;;22.33;;
36799;SDS011;22752;51.960;5.886;2022-12-18T04:43:48;39.67;;;22.10;;
36799;SDS011;22752;51.960;5.886;2022-12-18T04:46:13;48.00;;;23.37;;
36799;SDS011;22752;51.960;5.886;2022-12-18T04:48:39;37.33;;;21.50;;
36799;SDS011;22752;51.960;5.886;2022-12-18T04:51:05;44.57;;;23.00;;
36799;SDS011;22752;51.960;5.886;2022-12-18T04:53:32;43.13;;;23.43;;
36799;SDS011;22752;51.960;5.886;2022-12-18T04:56:11;44.27;;;22.83;;
36799;SDS011;22752;51.960;5.886;2022-12-18T04:58:38;43.73;;;21.80;;
36799;SDS011;22752;51.960;5.886;2022-12-18T05:01:06;41.13;;;21.80;;
36799;SDS011;22752;51.960;5.886;2022-12-18T05:03:33;39.77;;;21.43;;
36799;SDS011;22752;51.960;5.886;2022-12-18T05:06:00;40.57;;;20.47;;
36799;SDS011;22752;51.960;5.886;2022-12-18T05:08:25;42.20;;;21.27;;
36799;SDS011;22752;51.960;5.886;2022-12-18T05:10:58;42.27;;;21.80;;
36799;SDS011;22752;51.960;5.886;2022-12-18T05:13:29;34.27;;;18.90;;
36799;SDS011;22752;51.960;5.886;2022-12-18T05:15:54;35.17;;;19.23;;
36799;SDS011;22752;51.960;5.886;2022-12-18T05:18:21;34.73;;;18.57;;
36799;SDS011;22752;51.960;5.886;2022-12-18T05:20:48;37.60;;;19.77;;
36799;SDS011;22752;51.960;5.886;2022-12-18T05:23:15;34.80;;;18.67;;
36799;SDS011;22752;51.960;5.886;2022-12-18T05:25:40;32.50;;;17.60;;
36799;SDS011;22752;51.960;5.886;2022-12-18T05:28:06;33.93;;;17.97;;
36799;SDS011;22752;51.960;5.886;2022-12-18T05:30:32;35.73;;;18.23;;
36799;SDS011;22752;51.960;5.886;2022-12-18T05:32:57;33.13;;;18.33;;
36799;SDS011;22752;51.960;5.886;2022-12-18T05:35:23;36.60;;;18.47;;
36799;SDS011;22752;51.960;5.886;2022-12-18T05:37:49;37.60;;;20.33;;
36799;SDS011;22752;51.960;5.886;2022-12-18T05:40:14;37.20;;;19.27;;
36799;SDS011;22752;51.960;5.886;2022-12-18T05:42:40;34.17;;;18.87;;
36799;SDS011;22752;51.960;5.886;2022-12-18T05:45:06;35.70;;;18.67;;
36799;SDS011;22752;51.960;5.886;2022-12-18T05:47:32;38.70;;;19.83;;
36799;SDS011;22752;51.960;5.886;2022-12-18T05:49:58;38.00;;;20.63;;
36799;SDS011;22752;51.960;5.886;2022-12-18T05:52:23;40.97;;;20.73;;
36799;SDS011;22752;51.960;5.886;2022-12-18T05:54:49;37.40;;;19.23;;
36799;SDS011;22752;51.960;5.886;2022-12-18T05:57:15;37.07;;;19.97;;
36799;SDS011;22752;51.960;5.886;2022-12-18T05:59:40;36.13;;;20.20;;
36799;SDS011;22752;51.960;5.886;2022-12-18T06:02:06;39.47;;;19.53;;
36799;SDS011;22752;51.960;5.886;2022-12-18T06:04:31;35.43;;;19.40;;
36799;SDS011;22752;51.960;5.886;2022-12-18T06:06:57;35.93;;;18.50;;
36799;SDS011;22752;51.960;5.886;2022-12-18T06:09:23;34.93;;;18.67;;
36799;SDS011;22752;51.960;5.886;2022-12-18T06:11:51;35.03;;;18.67;;
36799;SDS011;22752;51.960;5.886;2022-12-18T06:14:17;38.30;;;20.97;;
36799;SDS011;22752;51.960;5.886;2022-12-18T06:16:43;43.13;;;22.60;;
36799;SDS011;22752;51.960;5.886;2022-12-18T06:19:12;43.83;;;21.57;;
36799;SDS011;22752;51.960;5.886;2022-12-18T06:21:40;38.53;;;20.10;;
36799;SDS011;22752;51.960;5.886;2022-12-18T06:24:05;41.87;;;22.40;;
36799;SDS011;22752;51.960;5.886;2022-12-18T06:26:31;38.07;;;19.67;;
36799;SDS011;22752;51.960;5.886;2022-12-18T06:28:57;37.63;;;19.70;;
36799;SDS011;22752;51.960;5.886;2022-12-18T06:31:22;42.60;;;21.50;;
36799;SDS011;22752;51.960;5.886;2022-12-18T06:33:48;38.57;;;21.33;;
36799;SDS011;22752;51.960;5.886;2022-12-18T06:36:14;39.00;;;20.87;;
36799;SDS011;22752;51.960;5.886;2022-12-18T06:38:41;36.97;;;19.63;;
36799;SDS011;22752;51.960;5.886;2022-12-18T06:41:08;36.93;;;21.37;;
36799;SDS011;22752;51.960;5.886;2022-12-18T06:43:35;36.27;;;21.90;;
36799;SDS011;22752;51.960;5.886;2022-12-18T06:46:01;35.97;;;21.27;;
36799;SDS011;22752;51.960;5.886;2022-12-18T06:48:28;38.77;;;20.90;;
36799;SDS011;22752;51.960;5.886;2022-12-18T06:50:54;36.63;;;21.00;;
36799;SDS011;22752;51.960;5.886;2022-12-18T06:53:20;37.13;;;20.33;;
36799;SDS011;22752;51.960;5.886;2022-12-18T06:55:46;35.57;;;20.00;;
36799;SDS011;22752;51.960;5.886;2022-12-18T06:58:12;35.63;;;20.73;;
36799;SDS011;22752;51.960;5.886;2022-12-18T07:00:38;38.43;;;21.17;;
36799;SDS011;22752;51.960;5.886;2022-12-18T07:03:03;37.77;;;21.30;;
36799;SDS011;22752;51.960;5.886;2022-12-18T07:05:29;40.47;;;23.23;;
36799;SDS011;22752;51.960;5.886;2022-12-18T07:07:54;37.90;;;22.27;;
36799;SDS011;22752;51.960;5.886;2022-12-18T07:10:20;38.47;;;21.10;;
36799;SDS011;22752;51.960;5.886;2022-12-18T07:12:46;35.67;;;20.23;;
36799;SDS011;22752;51.960;5.886;2022-12-18T07:15:12;34.90;;;21.03;;
36799;SDS011;22752;51.960;5.886;2022-12-18T07:17:37;33.07;;;21.20;;
36799;SDS011;22752;51.960;5.886;2022-12-18T07:20:03;35.30;;;20.37;;
36799;SDS011;22752;51.960;5.886;2022-12-18T07:22:29;33.33;;;19.80;;
36799;SDS011;22752;51.960;5.886;2022-12-18T07:24:55;32.13;;;20.23;;
36799;SDS011;22752;51.960;5.886;2022-12-18T07:27:20;31.87;;;19.50;;
36799;SDS011;22752;51.960;5.886;2022-12-18T07:29:46;34.97;;;20.70;;
36799;SDS011;22752;51.960;5.886;2022-12-18T07:32:12;32.93;;;18.83;;
36799;SDS011;22752;51.960;5.886;2022-12-18T07:34:38;37.53;;;19.10;;
36799;SDS011;22752;51.960;5.886;2022-12-18T07:37:04;36.50;;;20.37;;
36799;SDS011;22752;51.960;5.886;2022-12-18T07:39:29;37.17;;;19.77;;
36799;SDS011;22752;51.960;5.886;2022-12-18T07:41:55;36.40;;;20.07;;
36799;SDS011;22752;51.960;5.886;2022-12-18T07:44:39;33.93;;;19.93;;
36799;SDS011;22752;51.960;5.886;2022-12-18T07:47:05;34.47;;;19.67;;
36799;SDS011;22752;51.960;5.886;2022-12-18T07:49:31;33.17;;;20.70;;
36799;SDS011;22752;51.960;5.886;2022-12-18T07:51:57;28.27;;;17.27;;
36799;SDS011;22752;51.960;5.886;2022-12-18T07:54:23;33.10;;;17.83;;
36799;SDS011;22752;51.960;5.886;2022-12-18T07:56:50;34.63;;;19.83;;
36799;SDS011;22752;51.960;5.886;2022-12-18T07:59:16;31.60;;;19.03;;
36799;SDS011;22752;51.960;5.886;2022-12-18T08:01:42;28.00;;;17.20;;
36799;SDS011;22752;51.960;5.886;2022-12-18T08:04:08;31.30;;;18.53;;
36799;SDS011;22752;51.960;5.886;2022-12-18T08:06:33;36.40;;;18.73;;
36799;SDS011;22752;51.960;5.886;2022-12-18T08:08:59;33.57;;;18.97;;
36799;SDS011;22752;51.960;5.886;2022-12-18T08:11:25;30.00;;;17.70;;
36799;SDS011;22752;51.960;5.886;2022-12-18T08:13:52;31.27;;;17.67;;
36799;SDS011;22752;51.960;5.886;2022-12-18T08:16:18;31.47;;;18.00;;
36799;SDS011;22752;51.960;5.886;2022-12-18T08:18:44;28.57;;;16.70;;
36799;SDS011;22752;51.960;5.886;2022-12-18T08:21:14;35.07;;;17.33;;
36799;SDS011;22752;51.960;5.886;2022-12-18T08:23:45;29.20;;;17.13;;
36799;SDS011;22752;51.960;5.886;2022-12-18T08:26:11;27.90;;;16.87;;
36799;SDS011;22752;51.960;5.886;2022-12-18T08:28:38;28.93;;;15.90;;
36799;SDS011;22752;51.960;5.886;2022-12-18T08:31:04;31.07;;;16.47;;
36799;SDS011;22752;51.960;5.886;2022-12-18T08:33:30;28.20;;;16.97;;
36799;SDS011;22752;51.960;5.886;2022-12-18T08:35:57;31.13;;;16.97;;
36799;SDS011;22752;51.960;5.886;2022-12-18T08:38:23;30.43;;;17.17;;
36799;SDS011;22752;51.960;5.886;2022-12-18T08:40:49;25.67;;;16.47;;
36799;SDS011;22752;51.960;5.886;2022-12-18T08:43:19;27.03;;;16.67;;
36799;SDS011;22752;51.960;5.886;2022-12-18T08:46:03;26.83;;;16.03;;
36799;SDS011;22752;51.960;5.886;2022-12-18T08:48:28;26.73;;;16.23;;
36799;SDS011;22752;51.960;5.886;2022-12-18T08:50:55;28.17;;;16.30;;
36799;SDS011;22752;51.960;5.886;2022-12-18T08:53:24;28.83;;;16.23;;
36799;SDS011;22752;51.960;5.886;2022-12-18T08:55:50;25.17;;;14.70;;
36799;SDS011;22752;51.960;5.886;2022-12-18T08:58:17;28.83;;;15.77;;
36799;SDS011;22752;51.960;5.886;2022-12-18T09:00:43;25.73;;;14.30;;
36799;SDS011;22752;51.960;5.886;2022-12-18T09:03:18;22.10;;;13.70;;
36799;SDS011;22752;51.960;5.886;2022-12-18T09:05:45;25.10;;;13.90;;
36799;SDS011;22752;51.960;5.886;2022-12-18T09:08:11;23.20;;;13.90;;
36799;SDS011;22752;51.960;5.886;2022-12-18T09:10:44;21.90;;;13.60;;
36799;SDS011;22752;51.960;5.886;2022-12-18T09:13:11;24.30;;;13.53;;
36799;SDS011;22752;51.960;5.886;2022-12-18T09:15:44;25.67;;;13.67;;
36799;SDS011;22752;51.960;5.886;2022-12-18T09:18:17;23.47;;;12.87;;
36799;SDS011;22752;51.960;5.886;2022-12-18T09:20:44;25.43;;;13.93;;
36799;SDS011;22752;51.960;5.886;2022-12-18T09:23:10;23.00;;;13.03;;
36799;SDS011;22752;51.960;5.886;2022-12-18T09:25:36;21.80;;;12.90;;
36799;SDS011;22752;51.960;5.886;2022-12-18T09:28:03;20.43;;;12.10;;
36799;SDS011;22752;51.960;5.886;2022-12-18T09:33:05;20.20;;;12.30;;
36799;SDS011;22752;51.960;5.886;2022-12-18T09:35:30;21.97;;;12.40;;
36799;SDS011;22752;51.960;5.886;2022-12-18T09:37:56;19.40;;;12.13;;
36799;SDS011;22752;51.960;5.886;2022-12-18T09:40:25;21.20;;;12.03;;
36799;SDS011;22752;51.960;5.886;2022-12-18T09:42:57;23.23;;;12.07;;
36799;SDS011;22752;51.960;5.886;2022-12-18T09:45:25;18.73;;;12.32;;
36799;SDS011;22752;51.960;5.886;2022-12-18T09:47:52;23.60;;;12.23;;
36799;SDS011;22752;51.960;5.886;2022-12-18T09:52:55;22.30;;;12.80;;
36799;SDS011;22752;51.960;5.886;2022-12-18T09:55:42;21.40;;;12.07;;
36799;SDS011;22752;51.960;5.886;2022-12-18T10:00:35;20.07;;;11.93;;
36799;SDS011;22752;51.960;5.886;2022-12-18T10:03:11;18.50;;;10.93;;
36799;SDS011;22752;51.960;5.886;2022-12-18T10:08:29;20.60;;;12.47;;
36799;SDS011;22752;51.960;5.886;2022-12-18T10:11:03;23.10;;;11.50;;
36799;SDS011;22752;51.960;5.886;2022-12-18T10:13:56;19.57;;;11.30;;
36799;SDS011;22752;51.960;5.886;2022-12-18T10:16:39;21.37;;;12.27;;
36799;SDS011;22752;51.960;5.886;2022-12-18T10:24:42;21.27;;;11.73;;
36799;SDS011;22752;51.960;5.886;2022-12-18T10:27:22;21.50;;;12.37;;
36799;SDS011;22752;51.960;5.886;2022-12-18T10:29:49;21.47;;;11.83;;
36799;SDS011;22752;51.960;5.886;2022-12-18T10:32:19;21.10;;;12.27;;
36799;SDS011;22752;51.960;5.886;2022-12-18T10:34:50;19.60;;;11.50;;
36799;SDS011;22752;51.960;5.886;2022-12-18T10:37:18;21.67;;;12.27;;
36799;SDS011;22752;51.960;5.886;2022-12-18T10:39:46;20.30;;;11.87;;
36799;SDS011;22752;51.960;5.886;2022-12-18T10:42:29;20.00;;;11.70;;
36799;SDS011;22752;51.960;5.886;2022-12-18T10:45:02;20.00;;;11.67;;
36799;SDS011;22752;51.960;5.886;2022-12-18T10:47:33;21.07;;;12.10;;
36799;SDS011;22752;51.960;5.886;2022-12-18T10:50:00;17.60;;;10.90;;
36799;SDS011;22752;51.960;5.886;2022-12-18T10:52:26;20.77;;;12.60;;
36799;SDS011;22752;51.960;5.886;2022-12-18T10:54:57;18.10;;;11.77;;
36799;SDS011;22752;51.960;5.886;2022-12-18T10:57:31;17.97;;;11.73;;
36799;SDS011;22752;51.960;5.886;2022-12-18T11:00:21;20.87;;;12.00;;
36799;SDS011;22752;51.960;5.886;2022-12-18T11:02:52;22.23;;;12.33;;
36799;SDS011;22752;51.960;5.886;2022-12-18T11:05:29;20.97;;;12.23;;
36799;SDS011;22752;51.960;5.886;2022-12-18T11:07:57;19.17;;;12.03;;
36799;SDS011;22752;51.960;5.886;2022-12-18T11:10:30;21.87;;;12.40;;
36799;SDS011;22752;51.960;5.886;2022-12-18T11:13:08;23.27;;;12.90;;
36799;SDS011;22752;51.960;5.886;2022-12-18T11:15:40;20.63;;;12.67;;
36799;SDS011;22752;51.960;5.886;2022-12-18T11:18:15;21.57;;;13.00;;
36799;SDS011;22752;51.960;5.886;2022-12-18T11:20:56;21.27;;;12.77;;
36799;SDS011;22752;51.960;5.886;2022-12-18T11:23:25;18.80;;;11.03;;
36799;SDS011;22752;51.960;5.886;2022-12-18T11:25:58;22.77;;;13.47;;
36799;SDS011;22752;51.960;5.886;2022-12-18T11:31:20;24.77;;;13.00;;
36799;SDS011;22752;51.960;5.886;2022-12-18T11:33:51;20.93;;;12.73;;
36799;SDS011;22752;51.960;5.886;2022-12-18T11:36:25;20.47;;;12.07;;
36799;SDS011;22752;51.960;5.886;2022-12-18T11:38:56;18.93;;;11.50;;
36799;SDS011;22752;51.960;5.886;2022-12-18T11:41:30;20.77;;;12.17;;
36799;SDS011;22752;51.960;5.886;2022-12-18T11:44:26;22.50;;;13.33;;
36799;SDS011;22752;51.960;5.886;2022-12-18T11:46:59;18.80;;;11.60;;
36799;SDS011;22752;51.960;5.886;2022-12-18T11:49:29;21.67;;;12.10;;
36799;SDS011;22752;51.960;5.886;2022-12-18T11:54:50;18.67;;;11.17;;
36799;SDS011;22752;51.960;5.886;2022-12-18T12:05:45;19.63;;;12.00;;
36799;SDS011;22752;51.960;5.886;2022-12-18T12:17:14;22.00;;;12.43;;
36799;SDS011;22752;51.960;5.886;2022-12-18T12:19:45;24.17;;;13.40;;
36799;SDS011;22752;51.960;5.886;2022-12-18T12:23:22;20.73;;;12.17;;
36799;SDS011;22752;51.960;5.886;2022-12-18T12:30:29;20.30;;;12.03;;
36799;SDS011;22752;51.960;5.886;2022-12-18T12:38:45;20.97;;;11.30;;
36799;SDS011;22752;51.960;5.886;2022-12-18T12:41:17;21.50;;;13.10;;
36799;SDS011;22752;51.960;5.886;2022-12-18T12:44:07;20.40;;;12.30;;
36799;SDS011;22752;51.960;5.886;2022-12-18T12:46:38;18.50;;;11.85;;
36799;SDS011;22752;51.960;5.886;2022-12-18T12:49:11;21.80;;;12.70;;
36799;SDS011;22752;51.960;5.886;2022-12-18T12:51:43;28.00;;;13.37;;
36799;SDS011;22752;51.960;5.886;2022-12-18T12:54:20;21.63;;;11.60;;
36799;SDS011;22752;51.960;5.886;2022-12-18T12:56:50;21.37;;;12.40;;
36799;SDS011;22752;51.960;5.886;2022-12-18T12:59:45;19.20;;;11.73;;
36799;SDS011;22752;51.960;5.886;2022-12-18T13:05:28;25.23;;;12.63;;
36799;SDS011;22752;51.960;5.886;2022-12-18T13:08:33;20.00;;;12.43;;
36799;SDS011;22752;51.960;5.886;2022-12-18T13:11:30;21.27;;;13.38;;
36799;SDS011;22752;51.960;5.886;2022-12-18T13:14:24;21.47;;;12.47;;
36799;SDS011;22752;51.960;5.886;2022-12-18T13:19:42;24.33;;;12.40;;
36799;SDS011;22752;51.960;5.886;2022-12-18T13:40:57;24.87;;;12.90;;
36799;SDS011;22752;51.960;5.886;2022-12-18T13:43:24;21.47;;;11.93;;
36799;SDS011;22752;51.960;5.886;2022-12-18T13:48:47;22.07;;;12.53;;
36799;SDS011;22752;51.960;5.886;2022-12-18T13:51:25;22.80;;;12.57;;
36799;SDS011;22752;51.960;5.886;2022-12-18T13:54:00;20.40;;;12.17;;
36799;SDS011;22752;51.960;5.886;2022-12-18T13:56:28;21.77;;;11.83;;
36799;SDS011;22752;51.960;5.886;2022-12-18T14:01:33;20.20;;;12.37;;
36799;SDS011;22752;51.960;5.886;2022-12-18T14:04:09;23.63;;;13.20;;
36799;SDS011;22752;51.960;5.886;2022-12-18T14:06:46;22.30;;;13.37;;
36799;SDS011;22752;51.960;5.886;2022-12-18T14:09:15;23.63;;;12.93;;
36799;SDS011;22752;51.960;5.886;2022-12-18T14:11:50;24.30;;;13.23;;
36799;SDS011;22752;51.960;5.886;2022-12-18T14:14:17;23.90;;;13.38;;
36799;SDS011;22752;51.960;5.886;2022-12-18T14:16:43;22.13;;;13.27;;
36799;SDS011;22752;51.960;5.886;2022-12-18T14:19:19;23.57;;;13.77;;
36799;SDS011;22752;51.960;5.886;2022-12-18T14:21:47;24.87;;;13.43;;
36799;SDS011;22752;51.960;5.886;2022-12-18T14:24:18;21.80;;;13.17;;
36799;SDS011;22752;51.960;5.886;2022-12-18T14:26:46;22.53;;;13.73;;
36799;SDS011;22752;51.960;5.886;2022-12-18T14:29:24;28.70;;;14.57;;
36799;SDS011;22752;51.960;5.886;2022-12-18T14:32:06;21.83;;;13.47;;
36799;SDS011;22752;51.960;5.886;2022-12-18T14:34:37;21.40;;;13.30;;
36799;SDS011;22752;51.960;5.886;2022-12-18T14:37:03;27.63;;;13.97;;
36799;SDS011;22752;51.960;5.886;2022-12-18T14:39:29;22.47;;;14.13;;
36799;SDS011;22752;51.960;5.886;2022-12-18T14:41:54;23.53;;;13.90;;
36799;SDS011;22752;51.960;5.886;2022-12-18T14:44:20;25.37;;;13.90;;
36799;SDS011;22752;51.960;5.886;2022-12-18T14:46:46;23.83;;;14.17;;
36799;SDS011;22752;51.960;5.886;2022-12-18T14:49:26;23.57;;;13.93;;
36799;SDS011;22752;51.960;5.886;2022-12-18T14:51:56;23.20;;;13.60;;
36799;SDS011;22752;51.960;5.886;2022-12-18T14:54:30;25.83;;;13.60;;
36799;SDS011;22752;51.960;5.886;2022-12-18T15:02:10;24.07;;;14.07;;
36799;SDS011;22752;51.960;5.886;2022-12-18T15:04:46;25.47;;;14.47;;
36799;SDS011;22752;51.960;5.886;2022-12-18T15:07:16;23.00;;;13.90;;
36799;SDS011;22752;51.960;5.886;2022-12-18T15:10:01;26.90;;;13.60;;
36799;SDS011;22752;51.960;5.886;2022-12-18T15:14:59;23.77;;;13.50;;
36799;SDS011;22752;51.960;5.886;2022-12-18T15:17:25;27.10;;;14.53;;
36799;SDS011;22752;51.960;5.886;2022-12-18T15:19:52;26.97;;;15.03;;
36799;SDS011;22752;51.960;5.886;2022-12-18T15:22:27;25.55;;;14.25;;
36799;SDS011;22752;51.960;5.886;2022-12-18T15:24:55;24.30;;;14.20;;
36799;SDS011;22752;51.960;5.886;2022-12-18T15:27:27;23.27;;;13.60;;
36799;SDS011;22752;51.960;5.886;2022-12-18T15:32:37;24.37;;;15.07;;
36799;SDS011;22752;51.960;5.886;2022-12-18T15:37:36;26.87;;;16.43;;
36799;SDS011;22752;51.960;5.886;2022-12-18T15:40:02;29.37;;;16.10;;
36799;SDS011;22752;51.960;5.886;2022-12-18T15:42:29;24.93;;;13.73;;
36799;SDS011;22752;51.960;5.886;2022-12-18T15:45:13;29.13;;;14.67;;
36799;SDS011;22752;51.960;5.886;2022-12-18T15:47:39;25.63;;;15.80;;
36799;SDS011;22752;51.960;5.886;2022-12-18T15:50:06;24.43;;;14.90;;
36799;SDS011;22752;51.960;5.886;2022-12-18T15:52:35;26.63;;;15.53;;
36799;SDS011;22752;51.960;5.886;2022-12-18T15:55:10;26.63;;;15.52;;
36799;SDS011;22752;51.960;5.886;2022-12-18T15:58:10;24.10;;;14.63;;
36799;SDS011;22752;51.960;5.886;2022-12-18T16:00:36;25.13;;;14.97;;
36799;SDS011;22752;51.960;5.886;2022-12-18T16:03:04;26.77;;;15.93;;
36799;SDS011;22752;51.960;5.886;2022-12-18T16:05:30;25.97;;;15.23;;
36799;SDS011;22752;51.960;5.886;2022-12-18T16:07:56;25.50;;;14.70;;
36799;SDS011;22752;51.960;5.886;2022-12-18T16:10:23;32.80;;;17.97;;
36799;SDS011;22752;51.960;5.886;2022-12-18T16:12:49;28.40;;;17.10;;
36799;SDS011;22752;51.960;5.886;2022-12-18T16:15:15;29.83;;;17.10;;
36799;SDS011;22752;51.960;5.886;2022-12-18T16:17:42;26.93;;;15.67;;
36799;SDS011;22752;51.960;5.886;2022-12-18T16:20:12;28.70;;;16.47;;
36799;SDS011;22752;51.960;5.886;2022-12-18T16:22:42;29.57;;;16.67;;
36799;SDS011;22752;51.960;5.886;2022-12-18T16:25:15;30.33;;;16.77;;
36799;SDS011;22752;51.960;5.886;2022-12-18T16:27:45;25.87;;;16.10;;
36799;SDS011;22752;51.960;5.886;2022-12-18T16:30:15;27.77;;;16.70;;
36799;SDS011;22752;51.960;5.886;2022-12-18T16:32:42;32.37;;;18.67;;
36799;SDS011;22752;51.960;5.886;2022-12-18T16:35:09;29.13;;;17.57;;
36799;SDS011;22752;51.960;5.886;2022-12-18T16:37:36;33.40;;;18.70;;
36799;SDS011;22752;51.960;5.886;2022-12-18T16:40:02;27.07;;;16.40;;
36799;SDS011;22752;51.960;5.886;2022-12-18T16:42:28;28.17;;;16.63;;